Nearby METAR Reports

 

KMTN - Baltimore/Martin, Maryland, USA
Distance from station: SSE 8mi, 13km
Updated: Thu, 11-Feb-2016 12:57am EST
Clear
Clear
 Wind from W
Wind: W 13 mph , 20 km/h, Gust: 17 mph , 28 km/h
Temperature: 27°F , -3°C
Wind Chill: 16°F , -9°C
Dew Point: 14°F , -10°C
Humidity: 59%
Barometer: 29.95 inHg , 1014.2 hPa
Clouds: Clear
Visibility: 10 miles , 16 km
2016/02/11 05:57 KMTN 110557Z AUTO 26011G15KT 10SM CLR M03/M10 A2995 RMK AO2
KDMH - Baltimore/Dwntwn, Maryland, USA
Distance from station: SW 12mi, 19km
Updated: Thu, 11-Feb-2016 12:54am EST

 
Temperature: 25°F , -4°C
Dew Point: 9°F , -13°C
Humidity: 50%
Barometer: 29.89 inHg , 1012.2 hPa
2016/02/11 05:54 KDMH 110554Z AUTO M04/M13 A2989 RMK AO1 SLP122 T10391133 11011 21039 58003
 
KBWI - Balto/Wash Intl, Maryland, USA
Distance from station: SSW 20mi, 33km
Updated: Thu, 11-Feb-2016 12:54am EST
Mostly cloudy
Mostly cloudy
 Wind from W
Wind: W 14 mph , 22 km/h
Temperature: 23°F , -5°C
Wind Chill: 11°F , -12°C
Dew Point: 9°F , -13°C
Humidity: 54%
Barometer: 29.94 inHg , 1013.9 hPa
Clouds: Mostly cloudy
Visibility: 10 miles , 16 km
Cloud details: Partly cloudy 10000 ft
Mostly cloudy 15000 ft
2016/02/11 05:54 KBWI 110554Z 28012KT 10SM SCT100 BKN150 M05/M13 A2994 RMK AO2 SLP140 T10501133 11017 21050 53011
KDMW - Carroll Cnty, Maryland, USA
Distance from station: WNW 30mi, 48km
Updated: Thu, 11-Feb-2016 12:55am EST
Partly cloudy
Partly cloudy
 Wind from WNW
Wind: WNW 10 mph , 17 km/h
Temperature: 19°F , -7°C
Wind Chill: 8°F , -13°C
Dew Point: 12°F , -11°C
Humidity: 73%
Barometer: 29.89 inHg , 1012.2 hPa
Clouds: Partly cloudy
Visibility: 10 miles , 16 km
Cloud details: Partly cloudy 9000 ft
2016/02/11 05:55 KDMW 110555Z AUTO 29009KT 10SM SCT090 M07/M11 A2989 RMK AO2
 
KNAK - Annapolis/Naval, Maryland, USA
Distance from station: S 30mi, 48km
Updated: Thu, 11-Feb-2016 12:54am EST
Clear
Clear
 Wind from WNW
Wind: WNW 10 mph , 17 km/h
Temperature: 27°F , -3°C
Wind Chill: 18°F , -8°C
Dew Point: 10°F , -12°C
Humidity: 50%
Barometer: 29.95 inHg , 1014.2 hPa
Clouds: Clear
Visibility: 10 miles , 16 km
2016/02/11 05:54 KNAK 110554Z AUTO 29009KT 10SM CLR M03/M12 A2995 RMK AO2 SLP143 T10331117 10000 21039 53011
KW29 - Stevensville, Maryland, USA
Distance from station: SSE 31mi, 50km
Updated: Thu, 11-Feb-2016 12:57am EST

 Wind from WNW
Wind: WNW 20 mph , 31 km/h, Gust: 25 mph , 41 km/h
Temperature: 28°F , -2°C
Wind Chill: 15°F , -9°C
Dew Point: 10°F , -12°C
Humidity: 47%
Barometer: 29.95 inHg , 1014.2 hPa
Visibility: 10 miles , 16 km
2016/02/11 05:57 KW29 110557Z AUTO 29017G22KT 10SM M02/M12 A2995 RMK AO1
 
KCGS - College Park, Maryland, USA
Distance from station: SW 38mi, 61km
Updated: Thu, 11-Feb-2016 12:55am EST
Mostly cloudy
Mostly cloudy
 Wind from W
Wind: W 10 mph , 17 km/h, Gust: 23 mph , 37 km/h
Temperature: 27°F , -3°C
Wind Chill: 18°F , -8°C
Dew Point: 9°F , -13°C
Humidity: 46%
Barometer: 29.96 inHg , 1014.6 hPa
Clouds: Mostly cloudy
Visibility: 10 miles , 16 km
Cloud details: Mostly cloudy 11000 ft
2016/02/11 05:55 KCGS 110555Z AUTO 26009G20KT 230V290 10SM BKN110 M03/M13 A2996 RMK AO1
KGAI - Gaithersburg, Maryland, USA
Distance from station: WSW 40mi, 65km
Updated: Thu, 11-Feb-2016 1:15am EST
Clear
Clear
 Wind from WNW
Wind: WNW 7 mph , 11 km/h
Temperature: 19°F , -7°C
Wind Chill: 10°F , -12°C
Dew Point: 7°F , -14°C
Humidity: 58%
Barometer: 29.98 inHg , 1015.2 hPa
Clouds: Clear
Visibility: 10 miles , 16 km
2016/02/11 06:15 KGAI 110615Z AUTO 29006KT 10SM CLR M07/M14 A2998 RMK AO1
 
KTHV - York, Pennsylvania, USA
Distance from station: NNW 40mi, 65km
Updated: Thu, 11-Feb-2016 12:53am EST
Mostly cloudy
Mostly cloudy
 Wind from W
Wind: W 8 mph , 13 km/h, Gust: 18 mph , 30 km/h
Temperature: 19°F , -7°C
Wind Chill: 9°F , -13°C
Dew Point: 9°F , -13°C
Humidity: 63%
Barometer: 29.90 inHg , 1012.5 hPa
Clouds: Mostly cloudy
Visibility: 10 miles , 16 km
Cloud details: Mostly cloudy 8500 ft
2016/02/11 05:53 KTHV 110553Z AUTO 27007G16KT 10SM BKN085 M07/M13 A2990 RMK AO2 SLP132 T10671133 11039 21072 53012
KFDK - Frederick, Maryland, USA
Distance from station: W 47mi, 75km
Updated: Thu, 11-Feb-2016 12:55am EST
Clear
Clear
 Wind from W
Wind: W 16 mph , 26 km/h, Gust: 20 mph , 31 km/h
Temperature: 23°F , -5°C
Wind Chill: 10°F , -12°C
Dew Point: 12°F , -11°C
Humidity: 63%
Barometer: 29.99 inHg , 1015.6 hPa
Clouds: Clear
Visibility: 10 miles , 16 km
2016/02/11 05:55 KFDK 110555Z AUTO 28014G17KT 10SM CLR M05/M11 A2999 RMK AO2
 
KESN - Easton/Newnam, Maryland, USA
Distance from station: SSE 48mi, 78km
Updated: Thu, 11-Feb-2016 12:56am EST
Clear
Clear
 Wind from NW
Wind: NW 14 mph , 22 km/h, Gust: 25 mph , 41 km/h
Temperature: 27°F , -3°C
Wind Chill: 16°F , -9°C
Dew Point: 12°F , -11°C
Humidity: 54%
Barometer: 29.98 inHg , 1015.2 hPa
Clouds: Clear
Visibility: 10 miles , 16 km
2016/02/11 05:56 KESN 110556Z AUTO 31012G22KT 10SM CLR M03/M11 A2998 RMK AO2 T10281110 10007 21028 400341028
KDCA - Washington/Natl, Washington D.c., USA
Distance from station: SW 49mi, 79km
Updated: Thu, 11-Feb-2016 12:52am EST
Partly cloudy
Partly cloudy
 Wind from WNW
Wind: WNW 10 mph , 17 km/h, Gust: 23 mph , 37 km/h
Temperature: 27°F , -3°C
Wind Chill: 18°F , -8°C
Dew Point: 7°F , -14°C
Humidity: 43%
Barometer: 29.98 inHg , 1015.2 hPa
Clouds: Partly cloudy
Visibility: 10 miles , 16 km
Cloud details: Partly cloudy 11000 ft
2016/02/11 05:52 KDCA 110552Z 29009G20KT 10SM SCT110 M03/M14 A2998 RMK AO2 SLP152 T10331139 11017 21033 53012
 
KLNS - Lancaster, Pennsylvania, USA
Distance from station: N 49mi, 79km
Updated: Thu, 11-Feb-2016 12:53am EST
Clear
Clear
 Wind from WNW
Wind: WNW 12 mph , 19 km/h
Temperature: 19°F , -7°C
Wind Chill: 6°F , -14°C
Dew Point: 10°F , -12°C
Humidity: 68%
Barometer: 29.87 inHg , 1011.5 hPa
Clouds: Clear
Visibility: 10 miles , 16 km
2016/02/11 05:53 KLNS 110553Z AUTO 29010KT 10SM CLR M07/M12 A2987 RMK AO2 SLP119 T10721122 11028 21072 52007
KILG - Wilmington, Delaware, USA
Distance from station: ENE 50mi, 81km
Updated: Thu, 11-Feb-2016 12:51am EST
Clear
Clear
 Wind from W
Wind: W 16 mph , 26 km/h
Temperature: 25°F , -4°C
Wind Chill: 12°F , -11°C
Dew Point: 10°F , -12°C
Humidity: 54%
Barometer: 29.89 inHg , 1012.2 hPa
Clouds: Clear
Visibility: 10 miles , 16 km
2016/02/11 05:51 KILG 110551Z 28014KT 10SM CLR M04/M12 A2989 RMK AO2 SLP123 T10441117 11006 21044 51011 $